createdAt,value
2019-06-20T05:40:21.022Z,4.23
2019-06-20T05:45:21.897Z,4.20
2019-06-20T05:50:22.767Z,3.80
2019-06-20T05:55:23.740Z,3.70
2019-06-20T06:00:24.920Z,4.03
2019-06-20T06:05:25.814Z,3.70
2019-06-20T06:10:26.903Z,4.27
2019-06-20T06:15:27.780Z,4.27
2019-06-20T06:20:28.658Z,4.10
2019-06-20T06:25:29.535Z,3.63
2019-06-20T06:30:30.811Z,3.37
2019-06-20T06:35:31.702Z,3.57
2019-06-20T06:40:32.774Z,3.37
2019-06-20T06:45:33.860Z,3.43
2019-06-20T06:50:35.020Z,3.47
2019-06-20T06:55:36.011Z,3.33
2019-06-20T07:00:36.891Z,3.53
2019-06-20T07:05:37.800Z,3.27
2019-06-20T07:10:38.727Z,3.17
2019-06-20T07:15:39.618Z,3.67
2019-06-20T07:20:40.494Z,3.10
2019-06-20T07:25:41.466Z,3.20
2019-06-20T07:30:42.347Z,3.10
2019-06-20T07:35:43.228Z,3.80
2019-06-20T07:40:44.132Z,3.40
2019-06-20T07:46:01.157Z,3.07
2019-06-20T07:50:47.803Z,3.50
2019-06-20T07:55:48.679Z,3.60
2019-06-20T08:00:49.576Z,2.83
2019-06-20T08:05:50.498Z,3.07
2019-06-20T08:10:57.788Z,3.20
2019-06-20T08:15:59.156Z,3.13
2019-06-20T08:21:00.650Z,3.10
2019-06-20T08:26:02.550Z,3.00
2019-06-20T08:31:04.814Z,3.20
2019-06-20T08:36:06.713Z,3.10
2019-06-20T08:41:07.991Z,2.83
2019-06-20T08:46:10.374Z,3.57
2019-06-20T08:51:14.820Z,3.37
2019-06-20T08:56:15.845Z,3.10
2019-06-20T09:01:16.722Z,3.30
2019-06-20T09:06:17.593Z,3.10
2019-06-20T09:11:18.463Z,2.70
2019-06-20T09:16:24.566Z,2.80
2019-06-20T09:21:22.227Z,2.53
2019-06-20T09:26:23.084Z,2.47
2019-06-20T09:31:23.955Z,2.40
2019-06-20T09:36:24.947Z,2.20
2019-06-20T09:41:25.835Z,2.23
2019-06-20T09:46:26.710Z,2.40
2019-06-20T09:51:27.698Z,2.50
2019-06-20T09:56:28.577Z,2.07
2019-06-20T10:01:32.660Z,1.90
2019-06-20T10:06:34.242Z,5.60
2019-06-20T10:11:35.528Z,5.97
2019-06-20T10:16:45.280Z,2.40
2019-06-20T10:21:39.283Z,2.17
2019-06-20T10:26:40.369Z,2.27
2019-06-20T10:31:41.633Z,2.30
2019-06-20T10:36:44.818Z,2.07
2019-06-20T10:41:46.806Z,1.90
2019-06-20T10:46:49.199Z,1.70
2019-06-20T10:51:50.169Z,1.73
2019-06-20T10:56:51.137Z,1.73
2019-06-20T11:01:52.131Z,1.73
2019-06-20T11:06:53.002Z,1.83
2019-06-20T11:11:53.964Z,1.70
2019-06-20T11:16:54.848Z,1.90
2019-06-20T11:21:55.737Z,1.77
2019-06-20T11:26:56.591Z,1.70
2019-06-20T11:31:57.763Z,1.90
2019-06-20T11:36:58.621Z,1.80
2019-06-20T11:42:01.721Z,1.80
2019-06-20T11:47:02.715Z,1.80
2019-06-20T11:52:03.689Z,8.93
2019-06-20T11:57:04.684Z,2.50
2019-06-20T12:02:05.581Z,2.27
2019-06-20T12:07:06.850Z,2.20
2019-06-20T12:12:07.726Z,2.20
2019-06-20T12:17:08.966Z,2.20
2019-06-20T12:22:10.027Z,1.90
2019-06-20T12:27:10.866Z,1.80
2019-06-20T12:32:11.784Z,1.67
2019-06-20T12:37:14.668Z,1.60
2019-06-20T12:42:15.589Z,1.80
2019-06-20T12:47:16.457Z,1.70
2019-06-20T12:52:17.350Z,2.10
2019-06-20T12:57:18.225Z,1.90
2019-06-20T13:02:19.100Z,1.70
2019-06-20T13:07:20.006Z,1.67
2019-06-20T13:12:20.874Z,1.70
2019-06-20T13:17:21.754Z,2.00
2019-06-20T13:22:22.762Z,1.77
2019-06-20T13:27:23.636Z,1.47
2019-06-20T13:32:24.495Z,1.73
2019-06-20T13:37:25.348Z,1.63
2019-06-20T13:42:28.006Z,1.40
2019-06-20T13:47:28.985Z,1.77
2019-06-20T13:52:29.858Z,1.60
2019-06-20T13:57:30.740Z,1.40
2019-06-20T14:02:31.616Z,1.20
2019-06-20T14:07:32.594Z,1.60
2019-06-20T14:12:33.495Z,1.70
2019-06-20T14:17:43.604Z,1.50
2019-06-20T14:22:49.407Z,1.30
2019-06-20T14:27:51.709Z,1.60
2019-06-20T14:32:53.981Z,1.60
2019-06-20T14:37:55.663Z,1.70
2019-06-20T14:42:58.629Z,1.60
2019-06-20T14:48:00.267Z,2.00
2019-06-20T14:53:02.883Z,1.60
2019-06-20T14:58:04.460Z,1.80
2019-06-20T15:03:07.127Z,1.50
2019-06-20T15:08:08.115Z,1.80
2019-06-20T15:13:08.997Z,1.50
2019-06-20T15:18:09.869Z,1.67
2019-06-20T15:23:10.735Z,2.20
2019-06-20T15:28:11.637Z,1.87
2019-06-20T15:33:12.532Z,1.90
2019-06-20T15:38:13.405Z,2.20
2019-06-20T15:43:14.310Z,2.00
2019-06-20T15:48:15.198Z,2.10
2019-06-20T15:53:16.065Z,1.90
2019-06-20T15:58:16.940Z,1.97
2019-06-20T16:03:17.813Z,2.13
2019-06-20T16:08:22.108Z,2.03
2019-06-20T16:13:23.879Z,2.27
2019-06-20T16:18:38.356Z,2.03
2019-06-20T16:23:40.131Z,2.13
2019-06-20T16:28:46.169Z,2.00
2019-06-20T16:39:06.134Z,1.97
2019-06-20T16:44:07.042Z,2.50
2019-06-20T16:49:07.903Z,1.97
2019-06-20T16:54:08.782Z,1.80
2019-06-20T16:59:09.760Z,1.57
2019-06-20T17:04:10.620Z,1.50
2019-06-20T17:09:11.635Z,2.00
2019-06-20T17:14:12.692Z,1.10
2019-06-20T17:19:13.559Z,0.93
2019-06-20T17:24:14.428Z,1.40
2019-06-20T17:29:15.309Z,1.30
2019-06-20T17:34:16.273Z,1.00
2019-06-20T17:39:17.248Z,0.83
2019-06-20T17:44:18.240Z,1.20
2019-06-20T17:49:19.230Z,1.03
2019-06-20T17:54:20.095Z,0.87
2019-06-20T17:59:22.843Z,0.80
2019-06-20T18:04:26.640Z,1.10
2019-06-20T18:09:26.527Z,0.97
2019-06-20T18:14:27.571Z,0.80
2019-06-20T18:19:28.480Z,1.20
2019-06-20T18:24:29.353Z,1.07
2019-06-20T18:29:30.405Z,1.00
2019-06-20T18:34:31.275Z,1.00
2019-06-20T18:39:32.676Z,1.00
2019-06-20T18:44:33.623Z,1.00
2019-06-20T18:49:34.509Z,1.30
2019-06-20T18:54:35.369Z,1.10
2019-06-20T18:59:36.621Z,0.90
2019-06-20T19:04:47.984Z,0.90
2019-06-20T19:09:40.663Z,0.90
2019-06-20T19:14:41.536Z,0.90
2019-06-20T19:19:42.449Z,0.90
2019-06-20T19:24:43.424Z,1.20
2019-06-20T19:29:44.284Z,1.07
2019-06-20T19:35:00.620Z,1.00
2019-06-20T19:39:48.055Z,0.87
2019-06-20T19:44:49.006Z,0.80
2019-06-20T19:49:49.858Z,1.00
2019-06-20T19:54:50.858Z,0.97
2019-06-20T19:59:52.148Z,1.27
2019-06-20T20:04:53.007Z,0.80
2019-06-20T20:09:53.882Z,1.10
2019-06-20T20:14:54.992Z,1.20
